sensor_id;sensor_type;location;lat;lon;timestamp;P1;durP1;ratioP1;P2;durP2;ratioP2
8268;SDS011;4174;48.304;16.364;2023-04-30T00:03:47;12.32;;;5.57;;
8268;SDS011;4174;48.304;16.364;2023-04-30T00:09:51;13.65;;;5.40;;
8268;SDS011;4174;48.304;16.364;2023-04-30T00:15:54;9.87;;;4.73;;
8268;SDS011;4174;48.304;16.364;2023-04-30T00:21:58;9.38;;;4.68;;
8268;SDS011;4174;48.304;16.364;2023-04-30T00:28:02;10.43;;;4.70;;
8268;SDS011;4174;48.304;16.364;2023-04-30T00:34:07;9.90;;;4.60;;
8268;SDS011;4174;48.304;16.364;2023-04-30T00:40:11;10.02;;;4.72;;
8268;SDS011;4174;48.304;16.364;2023-04-30T00:46:15;10.77;;;5.07;;
8268;SDS011;4174;48.304;16.364;2023-04-30T00:52:19;11.43;;;5.23;;
8268;SDS011;4174;48.304;16.364;2023-04-30T00:58:22;11.50;;;5.40;;
8268;SDS011;4174;48.304;16.364;2023-04-30T01:04:26;10.88;;;5.05;;
8268;SDS011;4174;48.304;16.364;2023-04-30T01:10:31;11.33;;;5.40;;
8268;SDS011;4174;48.304;16.364;2023-04-30T01:16:35;11.17;;;5.40;;
8268;SDS011;4174;48.304;16.364;2023-04-30T01:22:49;12.47;;;5.70;;
8268;SDS011;4174;48.304;16.364;2023-04-30T01:28:52;12.40;;;6.03;;
8268;SDS011;4174;48.304;16.364;2023-04-30T01:34:55;12.07;;;5.80;;
8268;SDS011;4174;48.304;16.364;2023-04-30T01:41:06;12.52;;;6.03;;
8268;SDS011;4174;48.304;16.364;2023-04-30T01:47:08;15.87;;;6.80;;
8268;SDS011;4174;48.304;16.364;2023-04-30T01:53:12;14.30;;;6.90;;
8268;SDS011;4174;48.304;16.364;2023-04-30T01:59:12;15.20;;;7.12;;
8268;SDS011;4174;48.304;16.364;2023-04-30T02:05:14;14.47;;;6.90;;
8268;SDS011;4174;48.304;16.364;2023-04-30T02:11:18;16.47;;;7.00;;
8268;SDS011;4174;48.304;16.364;2023-04-30T02:17:22;16.77;;;7.63;;
8268;SDS011;4174;48.304;16.364;2023-04-30T02:23:26;14.83;;;7.27;;
8268;SDS011;4174;48.304;16.364;2023-04-30T02:29:30;17.17;;;7.90;;
8268;SDS011;4174;48.304;16.364;2023-04-30T02:35:33;16.13;;;7.70;;
8268;SDS011;4174;48.304;16.364;2023-04-30T02:41:37;16.60;;;7.90;;
8268;SDS011;4174;48.304;16.364;2023-04-30T02:47:40;18.87;;;8.02;;
8268;SDS011;4174;48.304;16.364;2023-04-30T02:53:44;16.93;;;8.13;;
8268;SDS011;4174;48.304;16.364;2023-04-30T02:59:47;16.80;;;7.67;;
8268;SDS011;4174;48.304;16.364;2023-04-30T03:05:52;16.52;;;7.87;;
8268;SDS011;4174;48.304;16.364;2023-04-30T03:11:56;18.33;;;8.77;;
8268;SDS011;4174;48.304;16.364;2023-04-30T03:18:00;17.20;;;8.63;;
8268;SDS011;4174;48.304;16.364;2023-04-30T03:24:04;18.00;;;9.02;;
8268;SDS011;4174;48.304;16.364;2023-04-30T03:30:09;18.73;;;9.07;;
8268;SDS011;4174;48.304;16.364;2023-04-30T03:36:13;19.23;;;9.20;;
8268;SDS011;4174;48.304;16.364;2023-04-30T03:42:16;18.60;;;8.97;;
8268;SDS011;4174;48.304;16.364;2023-04-30T03:48:20;18.07;;;8.83;;
8268;SDS011;4174;48.304;16.364;2023-04-30T03:54:25;18.03;;;8.60;;
8268;SDS011;4174;48.304;16.364;2023-04-30T04:00:28;18.73;;;9.00;;
8268;SDS011;4174;48.304;16.364;2023-04-30T04:06:32;18.10;;;8.88;;
8268;SDS011;4174;48.304;16.364;2023-04-30T04:12:36;16.98;;;8.20;;
8268;SDS011;4174;48.304;16.364;2023-04-30T04:18:39;17.92;;;8.23;;
8268;SDS011;4174;48.304;16.364;2023-04-30T04:24:43;17.20;;;8.87;;
8268;SDS011;4174;48.304;16.364;2023-04-30T04:30:46;17.00;;;8.07;;
8268;SDS011;4174;48.304;16.364;2023-04-30T04:36:50;18.05;;;8.38;;
8268;SDS011;4174;48.304;16.364;2023-04-30T04:42:54;16.30;;;8.07;;
8268;SDS011;4174;48.304;16.364;2023-04-30T04:48:58;15.50;;;7.90;;
8268;SDS011;4174;48.304;16.364;2023-04-30T04:55:02;15.50;;;7.70;;
8268;SDS011;4174;48.304;16.364;2023-04-30T05:01:05;15.83;;;7.33;;
8268;SDS011;4174;48.304;16.364;2023-04-30T05:07:09;14.10;;;7.00;;
8268;SDS011;4174;48.304;16.364;2023-04-30T05:13:13;14.60;;;7.57;;
8268;SDS011;4174;48.304;16.364;2023-04-30T05:19:15;14.63;;;7.13;;
8268;SDS011;4174;48.304;16.364;2023-04-30T05:25:19;14.85;;;7.25;;
8268;SDS011;4174;48.304;16.364;2023-04-30T05:31:23;15.47;;;7.53;;
8268;SDS011;4174;48.304;16.364;2023-04-30T05:37:26;14.83;;;7.53;;
8268;SDS011;4174;48.304;16.364;2023-04-30T05:43:30;14.75;;;7.60;;
8268;SDS011;4174;48.304;16.364;2023-04-30T05:49:34;14.83;;;7.30;;
8268;SDS011;4174;48.304;16.364;2023-04-30T05:55:37;16.45;;;7.30;;
8268;SDS011;4174;48.304;16.364;2023-04-30T06:01:41;14.73;;;7.00;;
8268;SDS011;4174;48.304;16.364;2023-04-30T06:07:45;13.55;;;6.82;;
8268;SDS011;4174;48.304;16.364;2023-04-30T06:13:49;14.27;;;6.97;;
8268;SDS011;4174;48.304;16.364;2023-04-30T06:19:53;12.65;;;6.20;;
8268;SDS011;4174;48.304;16.364;2023-04-30T06:25:56;12.83;;;6.23;;
8268;SDS011;4174;48.304;16.364;2023-04-30T06:31:59;12.47;;;6.37;;
8268;SDS011;4174;48.304;16.364;2023-04-30T06:38:03;11.27;;;5.90;;
8268;SDS011;4174;48.304;16.364;2023-04-30T06:44:07;13.10;;;6.37;;
8268;SDS011;4174;48.304;16.364;2023-04-30T06:50:10;11.20;;;6.17;;
8268;SDS011;4174;48.304;16.364;2023-04-30T06:56:13;11.13;;;6.10;;
8268;SDS011;4174;48.304;16.364;2023-04-30T07:02:17;10.80;;;6.00;;
8268;SDS011;4174;48.304;16.364;2023-04-30T07:08:21;12.05;;;6.07;;
8268;SDS011;4174;48.304;16.364;2023-04-30T07:14:24;10.53;;;5.23;;
8268;SDS011;4174;48.304;16.364;2023-04-30T07:20:28;10.43;;;4.97;;
8268;SDS011;4174;48.304;16.364;2023-04-30T07:26:31;9.75;;;4.90;;
8268;SDS011;4174;48.304;16.364;2023-04-30T07:32:34;9.60;;;4.80;;
8268;SDS011;4174;48.304;16.364;2023-04-30T07:38:36;11.27;;;4.90;;
8268;SDS011;4174;48.304;16.364;2023-04-30T07:44:40;9.48;;;4.85;;
8268;SDS011;4174;48.304;16.364;2023-04-30T07:50:46;10.20;;;4.53;;
8268;SDS011;4174;48.304;16.364;2023-04-30T07:56:51;10.73;;;4.90;;
8268;SDS011;4174;48.304;16.364;2023-04-30T08:02:54;11.70;;;4.90;;
8268;SDS011;4174;48.304;16.364;2023-04-30T08:08:57;10.40;;;4.80;;
8268;SDS011;4174;48.304;16.364;2023-04-30T08:15:02;12.10;;;5.07;;
8268;SDS011;4174;48.304;16.364;2023-04-30T08:21:06;11.73;;;4.60;;
8268;SDS011;4174;48.304;16.364;2023-04-30T08:27:10;10.48;;;4.90;;
8268;SDS011;4174;48.304;16.364;2023-04-30T08:33:13;9.17;;;4.50;;
8268;SDS011;4174;48.304;16.364;2023-04-30T08:39:17;10.50;;;4.57;;
8268;SDS011;4174;48.304;16.364;2023-04-30T08:45:22;10.37;;;4.77;;
8268;SDS011;4174;48.304;16.364;2023-04-30T08:51:26;10.43;;;4.68;;
8268;SDS011;4174;48.304;16.364;2023-04-30T08:57:29;10.30;;;4.87;;
8268;SDS011;4174;48.304;16.364;2023-04-30T09:03:32;10.70;;;5.00;;
8268;SDS011;4174;48.304;16.364;2023-04-30T09:09:39;10.93;;;4.90;;
8268;SDS011;4174;48.304;16.364;2023-04-30T09:15:42;12.60;;;5.50;;
8268;SDS011;4174;48.304;16.364;2023-04-30T09:21:47;10.87;;;5.07;;
8268;SDS011;4174;48.304;16.364;2023-04-30T09:28:05;10.77;;;5.07;;
8268;SDS011;4174;48.304;16.364;2023-04-30T09:34:05;11.30;;;4.80;;
8268;SDS011;4174;48.304;16.364;2023-04-30T09:40:08;9.00;;;4.43;;
8268;SDS011;4174;48.304;16.364;2023-04-30T09:46:12;9.90;;;4.62;;
8268;SDS011;4174;48.304;16.364;2023-04-30T09:52:17;11.43;;;4.50;;
8268;SDS011;4174;48.304;16.364;2023-04-30T09:58:19;9.83;;;4.50;;
8268;SDS011;4174;48.304;16.364;2023-04-30T10:04:22;9.57;;;4.40;;
8268;SDS011;4174;48.304;16.364;2023-04-30T10:10:25;8.80;;;4.70;;
8268;SDS011;4174;48.304;16.364;2023-04-30T10:16:33;9.82;;;4.70;;
8268;SDS011;4174;48.304;16.364;2023-04-30T10:22:45;10.90;;;5.07;;
8268;SDS011;4174;48.304;16.364;2023-04-30T10:28:48;11.13;;;5.07;;
8268;SDS011;4174;48.304;16.364;2023-04-30T10:34:53;9.75;;;5.10;;
8268;SDS011;4174;48.304;16.364;2023-04-30T10:41:13;9.27;;;4.95;;
8268;SDS011;4174;48.304;16.364;2023-04-30T10:47:17;11.10;;;5.07;;
8268;SDS011;4174;48.304;16.364;2023-04-30T10:53:20;10.33;;;5.47;;
8268;SDS011;4174;48.304;16.364;2023-04-30T10:59:23;10.70;;;5.30;;
8268;SDS011;4174;48.304;16.364;2023-04-30T11:11:38;10.75;;;6.07;;
8268;SDS011;4174;48.304;16.364;2023-04-30T11:17:43;11.73;;;6.50;;
8268;SDS011;4174;48.304;16.364;2023-04-30T11:23:46;12.40;;;6.57;;
8268;SDS011;4174;48.304;16.364;2023-04-30T11:29:48;13.77;;;7.23;;
8268;SDS011;4174;48.304;16.364;2023-04-30T11:35:51;11.98;;;6.60;;
8268;SDS011;4174;48.304;16.364;2023-04-30T11:41:54;18.43;;;8.10;;
8268;SDS011;4174;48.304;16.364;2023-04-30T11:47:57;11.53;;;5.90;;
8268;SDS011;4174;48.304;16.364;2023-04-30T11:54:00;12.07;;;6.20;;
8268;SDS011;4174;48.304;16.364;2023-04-30T12:00:08;10.40;;;5.00;;
8268;SDS011;4174;48.304;16.364;2023-04-30T12:06:11;25.65;;;12.32;;
8268;SDS011;4174;48.304;16.364;2023-04-30T12:12:24;14.85;;;7.28;;
8268;SDS011;4174;48.304;16.364;2023-04-30T12:18:17;8.88;;;4.60;;
8268;SDS011;4174;48.304;16.364;2023-04-30T12:24:21;9.97;;;4.33;;
8268;SDS011;4174;48.304;16.364;2023-04-30T12:30:25;8.43;;;4.07;;
8268;SDS011;4174;48.304;16.364;2023-04-30T12:36:29;8.37;;;4.10;;
8268;SDS011;4174;48.304;16.364;2023-04-30T12:42:31;10.70;;;4.53;;
8268;SDS011;4174;48.304;16.364;2023-04-30T12:48:41;8.73;;;4.50;;
8268;SDS011;4174;48.304;16.364;2023-04-30T12:54:36;9.33;;;4.67;;
8268;SDS011;4174;48.304;16.364;2023-04-30T13:00:42;8.85;;;4.15;;
8268;SDS011;4174;48.304;16.364;2023-04-30T13:06:52;8.67;;;4.20;;
8268;SDS011;4174;48.304;16.364;2023-04-30T13:12:56;9.48;;;4.20;;
8268;SDS011;4174;48.304;16.364;2023-04-30T13:18:59;8.10;;;4.47;;
8268;SDS011;4174;48.304;16.364;2023-04-30T13:25:02;8.25;;;4.32;;
8268;SDS011;4174;48.304;16.364;2023-04-30T13:31:08;7.43;;;3.50;;
8268;SDS011;4174;48.304;16.364;2023-04-30T13:37:12;8.60;;;3.73;;
8268;SDS011;4174;48.304;16.364;2023-04-30T13:43:16;8.10;;;3.90;;
8268;SDS011;4174;48.304;16.364;2023-04-30T13:49:19;9.17;;;3.50;;
8268;SDS011;4174;48.304;16.364;2023-04-30T13:55:23;8.77;;;3.90;;
8268;SDS011;4174;48.304;16.364;2023-04-30T14:01:26;8.70;;;4.30;;
8268;SDS011;4174;48.304;16.364;2023-04-30T14:07:30;10.00;;;5.10;;
8268;SDS011;4174;48.304;16.364;2023-04-30T14:13:33;8.93;;;4.53;;
8268;SDS011;4174;48.304;16.364;2023-04-30T14:19:37;8.48;;;4.03;;
8268;SDS011;4174;48.304;16.364;2023-04-30T14:25:40;8.43;;;3.97;;
8268;SDS011;4174;48.304;16.364;2023-04-30T14:31:44;8.70;;;3.87;;
8268;SDS011;4174;48.304;16.364;2023-04-30T14:37:46;8.23;;;3.90;;
8268;SDS011;4174;48.304;16.364;2023-04-30T14:43:49;6.80;;;3.30;;
8268;SDS011;4174;48.304;16.364;2023-04-30T14:49:53;7.07;;;3.37;;
8268;SDS011;4174;48.304;16.364;2023-04-30T14:55:57;7.90;;;3.20;;
8268;SDS011;4174;48.304;16.364;2023-04-30T15:02:01;9.67;;;3.23;;
8268;SDS011;4174;48.304;16.364;2023-04-30T15:08:05;6.60;;;3.00;;
8268;SDS011;4174;48.304;16.364;2023-04-30T15:14:09;8.50;;;3.60;;
8268;SDS011;4174;48.304;16.364;2023-04-30T15:20:14;7.07;;;3.67;;
8268;SDS011;4174;48.304;16.364;2023-04-30T15:26:18;8.07;;;3.70;;
8268;SDS011;4174;48.304;16.364;2023-04-30T15:32:22;10.55;;;3.80;;
8268;SDS011;4174;48.304;16.364;2023-04-30T15:38:26;10.37;;;3.40;;
8268;SDS011;4174;48.304;16.364;2023-04-30T15:44:30;7.20;;;3.50;;
8268;SDS011;4174;48.304;16.364;2023-04-30T15:50:34;7.90;;;3.70;;
8268;SDS011;4174;48.304;16.364;2023-04-30T15:56:38;8.23;;;3.65;;
8268;SDS011;4174;48.304;16.364;2023-04-30T16:02:41;8.48;;;3.50;;
8268;SDS011;4174;48.304;16.364;2023-04-30T16:08:46;8.60;;;3.63;;
8268;SDS011;4174;48.304;16.364;2023-04-30T16:14:49;10.75;;;4.00;;
8268;SDS011;4174;48.304;16.364;2023-04-30T16:20:52;8.60;;;3.57;;
8268;SDS011;4174;48.304;16.364;2023-04-30T16:26:56;8.00;;;3.40;;
8268;SDS011;4174;48.304;16.364;2023-04-30T16:32:59;7.28;;;3.40;;
8268;SDS011;4174;48.304;16.364;2023-04-30T16:39:03;8.07;;;3.53;;
8268;SDS011;4174;48.304;16.364;2023-04-30T16:45:07;7.78;;;3.50;;
8268;SDS011;4174;48.304;16.364;2023-04-30T16:51:11;10.02;;;3.50;;
8268;SDS011;4174;48.304;16.364;2023-04-30T16:57:15;7.83;;;3.60;;
8268;SDS011;4174;48.304;16.364;2023-04-30T17:03:19;8.10;;;3.70;;
8268;SDS011;4174;48.304;16.364;2023-04-30T17:09:23;7.62;;;3.50;;
8268;SDS011;4174;48.304;16.364;2023-04-30T17:15:26;7.20;;;3.50;;
8268;SDS011;4174;48.304;16.364;2023-04-30T17:21:29;8.05;;;3.55;;
8268;SDS011;4174;48.304;16.364;2023-04-30T17:27:33;7.87;;;3.67;;
8268;SDS011;4174;48.304;16.364;2023-04-30T17:33:36;8.30;;;3.13;;
8268;SDS011;4174;48.304;16.364;2023-04-30T17:39:40;8.33;;;3.50;;
8268;SDS011;4174;48.304;16.364;2023-04-30T17:45:43;7.30;;;3.70;;
8268;SDS011;4174;48.304;16.364;2023-04-30T17:51:47;8.93;;;3.90;;
8268;SDS011;4174;48.304;16.364;2023-04-30T17:57:50;10.10;;;4.30;;
8268;SDS011;4174;48.304;16.364;2023-04-30T18:03:57;8.75;;;4.10;;
8268;SDS011;4174;48.304;16.364;2023-04-30T18:09:57;11.13;;;5.43;;
8268;SDS011;4174;48.304;16.364;2023-04-30T18:16:00;10.53;;;4.93;;
8268;SDS011;4174;48.304;16.364;2023-04-30T18:22:03;14.60;;;6.23;;
8268;SDS011;4174;48.304;16.364;2023-04-30T18:28:07;11.63;;;5.93;;
8268;SDS011;4174;48.304;16.364;2023-04-30T18:34:10;12.02;;;5.28;;
8268;SDS011;4174;48.304;16.364;2023-04-30T18:40:14;9.43;;;4.43;;
8268;SDS011;4174;48.304;16.364;2023-04-30T18:46:18;10.03;;;4.63;;
8268;SDS011;4174;48.304;16.364;2023-04-30T18:52:22;12.83;;;5.87;;
8268;SDS011;4174;48.304;16.364;2023-04-30T18:58:26;8.68;;;4.57;;
8268;SDS011;4174;48.304;16.364;2023-04-30T19:04:29;9.47;;;4.80;;
8268;SDS011;4174;48.304;16.364;2023-04-30T19:10:33;10.52;;;5.75;;
8268;SDS011;4174;48.304;16.364;2023-04-30T19:16:36;11.33;;;6.10;;
8268;SDS011;4174;48.304;16.364;2023-04-30T19:22:40;12.95;;;6.43;;
8268;SDS011;4174;48.304;16.364;2023-04-30T19:28:43;12.63;;;6.40;;
8268;SDS011;4174;48.304;16.364;2023-04-30T19:34:47;10.50;;;5.53;;
8268;SDS011;4174;48.304;16.364;2023-04-30T19:40:51;10.80;;;5.32;;
8268;SDS011;4174;48.304;16.364;2023-04-30T19:46:53;10.63;;;5.50;;
8268;SDS011;4174;48.304;16.364;2023-04-30T19:52:55;10.10;;;5.50;;
8268;SDS011;4174;48.304;16.364;2023-04-30T19:58:59;9.93;;;4.73;;
8268;SDS011;4174;48.304;16.364;2023-04-30T20:05:03;10.20;;;5.10;;
8268;SDS011;4174;48.304;16.364;2023-04-30T20:11:08;10.83;;;5.30;;
8268;SDS011;4174;48.304;16.364;2023-04-30T20:17:12;10.93;;;6.10;;
8268;SDS011;4174;48.304;16.364;2023-04-30T20:23:17;12.85;;;6.62;;
8268;SDS011;4174;48.304;16.364;2023-04-30T20:29:21;14.87;;;7.80;;
8268;SDS011;4174;48.304;16.364;2023-04-30T20:35:25;14.20;;;7.80;;
8268;SDS011;4174;48.304;16.364;2023-04-30T20:41:29;13.23;;;6.00;;
8268;SDS011;4174;48.304;16.364;2023-04-30T20:47:33;10.80;;;6.07;;
8268;SDS011;4174;48.304;16.364;2023-04-30T20:53:36;12.40;;;5.45;;
8268;SDS011;4174;48.304;16.364;2023-04-30T20:59:40;11.40;;;5.10;;
8268;SDS011;4174;48.304;16.364;2023-04-30T21:05:45;9.73;;;5.20;;
8268;SDS011;4174;48.304;16.364;2023-04-30T21:11:49;10.70;;;5.20;;
8268;SDS011;4174;48.304;16.364;2023-04-30T21:17:53;10.37;;;5.40;;
8268;SDS011;4174;48.304;16.364;2023-04-30T21:23:56;11.37;;;6.07;;
8268;SDS011;4174;48.304;16.364;2023-04-30T21:30:01;13.48;;;6.57;;
8268;SDS011;4174;48.304;16.364;2023-04-30T21:36:06;13.57;;;6.57;;
8268;SDS011;4174;48.304;16.364;2023-04-30T21:42:09;13.53;;;7.27;;
8268;SDS011;4174;48.304;16.364;2023-04-30T21:48:13;12.07;;;6.35;;
8268;SDS011;4174;48.304;16.364;2023-04-30T21:54:16;12.93;;;6.70;;
8268;SDS011;4174;48.304;16.364;2023-04-30T22:00:20;12.55;;;6.15;;
8268;SDS011;4174;48.304;16.364;2023-04-30T22:06:23;13.77;;;6.50;;
8268;SDS011;4174;48.304;16.364;2023-04-30T22:12:27;12.10;;;6.40;;
8268;SDS011;4174;48.304;16.364;2023-04-30T22:18:30;11.97;;;5.73;;
8268;SDS011;4174;48.304;16.364;2023-04-30T22:24:34;11.57;;;5.20;;
8268;SDS011;4174;48.304;16.364;2023-04-30T22:30:39;12.33;;;5.13;;
8268;SDS011;4174;48.304;16.364;2023-04-30T22:36:42;11.47;;;5.63;;
8268;SDS011;4174;48.304;16.364;2023-04-30T22:42:46;11.47;;;5.10;;
8268;SDS011;4174;48.304;16.364;2023-04-30T22:48:49;12.30;;;5.90;;
8268;SDS011;4174;48.304;16.364;2023-04-30T22:54:53;12.35;;;6.43;;
8268;SDS011;4174;48.304;16.364;2023-04-30T23:00:56;17.50;;;8.43;;
8268;SDS011;4174;48.304;16.364;2023-04-30T23:06:59;20.03;;;8.63;;
8268;SDS011;4174;48.304;16.364;2023-04-30T23:13:03;14.03;;;7.10;;
8268;SDS011;4174;48.304;16.364;2023-04-30T23:19:07;9.90;;;4.63;;
8268;SDS011;4174;48.304;16.364;2023-04-30T23:25:09;9.57;;;4.07;;
8268;SDS011;4174;48.304;16.364;2023-04-30T23:31:13;7.77;;;3.20;;
8268;SDS011;4174;48.304;16.364;2023-04-30T23:37:16;7.25;;;2.80;;
8268;SDS011;4174;48.304;16.364;2023-04-30T23:43:20;8.00;;;3.03;;
8268;SDS011;4174;48.304;16.364;2023-04-30T23:49:24;8.07;;;3.30;;
8268;SDS011;4174;48.304;16.364;2023-04-30T23:55:27;8.73;;;3.80;;
